createdAt,value
2022-07-28T00:02:07.884Z,57.18
2022-07-28T00:04:37.827Z,57.33
2022-07-28T00:07:07.433Z,57.40
2022-07-28T00:09:37.182Z,57.31
2022-07-28T00:12:10.478Z,57.13
2022-07-28T00:14:40.257Z,57.24
2022-07-28T00:17:09.935Z,57.14
2022-07-28T00:19:39.649Z,57.10
2022-07-28T00:22:09.284Z,57.38
2022-07-28T00:24:38.960Z,57.29
2022-07-28T00:27:11.203Z,57.28
2022-07-28T00:29:42.517Z,57.30
2022-07-28T00:32:20.732Z,57.55
2022-07-28T00:34:52.880Z,57.42
2022-07-28T00:37:23.429Z,57.65
2022-07-28T00:39:56.261Z,57.46
2022-07-28T00:42:28.511Z,57.54
2022-07-28T00:44:58.120Z,57.64
2022-07-28T00:47:27.757Z,57.71
2022-07-28T00:50:03.747Z,57.60
2022-07-28T00:52:33.754Z,57.80
2022-07-28T00:55:03.672Z,57.74
2022-07-28T00:57:35.967Z,57.71
2022-07-28T01:00:07.161Z,57.78
2022-07-28T01:02:37.006Z,57.80
2022-07-28T01:05:07.547Z,58.01
2022-07-28T01:07:42.118Z,58.12
2022-07-28T01:10:15.170Z,57.87
2022-07-28T01:12:53.665Z,58.07
2022-07-28T01:15:28.050Z,57.89
2022-07-28T01:18:02.457Z,58.04
2022-07-28T01:20:36.619Z,58.16
2022-07-28T01:23:24.501Z,58.37
2022-07-28T01:26:06.709Z,58.17
2022-07-28T01:28:47.465Z,58.17
2022-07-28T01:31:23.709Z,58.44
2022-07-28T01:33:56.122Z,58.49
2022-07-28T01:36:29.438Z,58.66
2022-07-28T01:38:59.710Z,59.16
2022-07-28T01:41:31.501Z,59.14
2022-07-28T01:44:03.988Z,59.27
2022-07-28T01:46:36.500Z,59.39
2022-07-28T01:49:06.755Z,59.85
2022-07-28T01:51:37.502Z,59.72
2022-07-28T01:54:07.876Z,60.06
2022-07-28T01:56:37.845Z,59.84
2022-07-28T01:59:11.854Z,60.09
2022-07-28T02:01:46.359Z,60.01
2022-07-28T02:04:17.395Z,60.64
2022-07-28T02:06:47.701Z,60.31
2022-07-28T02:09:17.441Z,60.40
2022-07-28T02:11:47.764Z,60.54
2022-07-28T02:14:19.311Z,60.91
2022-07-28T02:16:54.778Z,60.80
2022-07-28T02:19:24.473Z,60.63
2022-07-28T02:21:54.646Z,60.75
2022-07-28T02:24:27.709Z,60.98
2022-07-28T02:27:00.945Z,61.07
2022-07-28T02:29:50.263Z,61.14
2022-07-28T02:32:28.682Z,61.16
2022-07-28T02:35:03.322Z,61.35
2022-07-28T02:37:38.173Z,61.33
2022-07-28T02:40:09.034Z,61.22
2022-07-28T02:42:39.285Z,61.58
2022-07-28T02:45:13.150Z,61.75
2022-07-28T02:47:48.894Z,61.59
2022-07-28T02:50:19.701Z,61.83
2022-07-28T02:52:49.790Z,62.04
2022-07-28T02:55:20.085Z,62.00
2022-07-28T02:57:54.748Z,62.34
2022-07-28T03:00:27.143Z,62.22
2022-07-28T03:03:00.124Z,62.44
2022-07-28T03:05:29.932Z,62.67
2022-07-28T03:07:59.949Z,62.62
2022-07-28T03:10:32.896Z,62.70
2022-07-28T03:13:06.969Z,62.71
2022-07-28T03:15:36.839Z,62.74
2022-07-28T03:18:09.443Z,63.04
2022-07-28T03:20:39.067Z,62.91
2022-07-28T03:23:10.734Z,63.25
2022-07-28T03:25:44.828Z,63.31
2022-07-28T03:28:15.235Z,63.26
2022-07-28T03:30:46.357Z,63.21
2022-07-28T03:33:18.909Z,63.59
2022-07-28T03:35:50.817Z,63.48
2022-07-28T03:38:23.847Z,63.75
2022-07-28T03:40:55.369Z,63.80
2022-07-28T03:43:27.282Z,63.82
2022-07-28T03:45:57.259Z,63.71
2022-07-28T03:48:34.874Z,64.13
2022-07-28T03:51:04.564Z,64.02
2022-07-28T03:53:34.260Z,64.08
2022-07-28T03:56:03.997Z,64.01
2022-07-28T03:58:34.277Z,64.27
2022-07-28T04:01:04.279Z,64.14
2022-07-28T04:03:43.734Z,64.29
2022-07-28T04:06:14.005Z,64.50
2022-07-28T04:08:44.068Z,64.18
2022-07-28T04:11:14.085Z,64.41
2022-07-28T04:13:43.822Z,64.17
2022-07-28T04:16:13.856Z,64.14
2022-07-28T04:18:46.531Z,64.10
2022-07-28T04:21:16.303Z,64.08
2022-07-28T04:23:46.023Z,63.95
2022-07-28T04:26:17.321Z,63.63
2022-07-28T04:28:47.161Z,63.82
2022-07-28T04:31:16.975Z,63.64
2022-07-28T04:33:50.709Z,63.56
2022-07-28T04:36:20.915Z,63.61
2022-07-28T04:38:50.650Z,63.18
2022-07-28T04:41:20.317Z,63.25
2022-07-28T04:43:49.970Z,63.19
2022-07-28T04:46:19.616Z,63.13
2022-07-28T04:48:51.980Z,63.29
2022-07-28T04:51:23.267Z,63.14
2022-07-28T04:53:53.344Z,62.90
2022-07-28T04:56:23.122Z,63.01
2022-07-28T04:58:52.821Z,62.81
2022-07-28T05:01:23.928Z,62.98
2022-07-28T05:03:56.646Z,62.75
2022-07-28T05:06:26.634Z,62.64
2022-07-28T05:08:56.273Z,62.50
2022-07-28T05:11:25.997Z,62.24
2022-07-28T05:13:56.279Z,62.28
2022-07-28T05:16:25.935Z,62.03
2022-07-28T05:18:58.474Z,61.77
2022-07-28T05:21:28.207Z,61.56
2022-07-28T05:23:58.214Z,61.26
2022-07-28T05:26:28.749Z,61.02
2022-07-28T05:28:58.592Z,60.80
2022-07-28T05:31:28.356Z,60.24
2022-07-28T05:34:00.636Z,60.03
2022-07-28T05:36:30.260Z,59.92
2022-07-28T05:38:59.904Z,59.39
2022-07-28T05:41:29.614Z,59.41
2022-07-28T05:44:01.399Z,58.82
2022-07-28T05:46:31.388Z,58.49
2022-07-28T05:49:03.820Z,57.86
2022-07-28T05:51:38.395Z,57.06
2022-07-28T05:54:11.822Z,56.03
2022-07-28T05:56:41.687Z,55.46
2022-07-28T05:59:11.589Z,54.42
2022-07-28T06:01:41.540Z,53.99
2022-07-28T06:04:27.580Z,53.19
2022-07-28T06:06:57.878Z,52.76
2022-07-28T06:09:27.526Z,52.78
2022-07-28T06:11:57.197Z,52.68
2022-07-28T06:14:27.545Z,52.25
2022-07-28T06:16:57.290Z,51.97
2022-07-28T06:19:29.591Z,51.57
2022-07-28T06:21:59.202Z,51.42
2022-07-28T06:24:29.603Z,50.39
2022-07-28T06:27:01.097Z,50.31
2022-07-28T06:29:30.904Z,49.50
2022-07-28T06:32:00.755Z,49.19
2022-07-28T06:34:34.955Z,47.51
2022-07-28T06:37:05.313Z,47.11
2022-07-28T06:39:35.029Z,46.39
2022-07-28T06:42:04.783Z,45.58
2022-07-28T06:44:57.499Z,44.44
2022-07-28T06:47:24.103Z,43.47
2022-07-28T06:49:56.340Z,42.52
2022-07-28T06:52:26.008Z,41.85
2022-07-28T06:54:58.137Z,41.60
2022-07-28T06:57:33.598Z,40.84
2022-07-28T07:00:04.168Z,40.15
2022-07-28T07:02:33.838Z,40.16
2022-07-28T07:05:06.406Z,39.41
2022-07-28T07:07:41.063Z,38.63
2022-07-28T07:10:12.737Z,38.08
2022-07-28T07:12:42.418Z,37.87
2022-07-28T07:15:13.918Z,37.94
2022-07-28T07:17:43.583Z,38.31
2022-07-28T07:20:18.088Z,38.04
2022-07-28T07:22:49.364Z,38.09
2022-07-28T07:25:21.365Z,38.38
2022-07-28T07:27:51.084Z,37.91
2022-07-28T07:30:20.796Z,37.83
2022-07-28T07:32:50.464Z,37.01
2022-07-28T07:35:22.770Z,36.00
2022-07-28T07:37:52.346Z,34.78
2022-07-28T07:40:21.962Z,33.73
2022-07-28T07:42:51.565Z,31.97
2022-07-28T07:45:21.356Z,30.45
2022-07-28T07:47:50.965Z,30.01
2022-07-28T07:50:23.245Z,28.76
2022-07-28T07:52:52.955Z,28.01
2022-07-28T07:55:22.670Z,27.77
2022-07-28T07:57:52.600Z,26.72
2022-07-28T08:00:29.167Z,26.12
2022-07-28T08:02:59.302Z,25.00
2022-07-28T08:05:35.674Z,24.86
2022-07-28T08:08:07.600Z,24.48
2022-07-28T08:10:37.449Z,24.72
2022-07-28T08:13:07.587Z,25.00
2022-07-28T08:15:37.672Z,25.10
2022-07-28T08:18:07.468Z,24.82
2022-07-28T08:20:39.744Z,24.28
2022-07-28T08:23:11.425Z,23.95
2022-07-28T08:25:41.418Z,23.74
2022-07-28T08:28:11.075Z,23.05
2022-07-28T08:30:41.751Z,22.42
2022-07-28T08:33:11.383Z,22.02
2022-07-28T08:35:44.378Z,21.32
2022-07-28T08:38:13.990Z,20.88
2022-07-28T08:40:44.884Z,21.12
2022-07-28T08:43:26.987Z,20.64
2022-07-28T08:45:58.701Z,20.41
2022-07-28T08:48:30.594Z,20.10
2022-07-28T08:51:04.622Z,19.65
2022-07-28T08:53:35.066Z,19.25
2022-07-28T08:56:07.235Z,19.76
2022-07-28T08:58:38.092Z,19.75
2022-07-28T09:01:10.948Z,19.76
2022-07-28T09:03:41.956Z,20.27
2022-07-28T09:06:14.283Z,20.28
2022-07-28T09:08:43.927Z,19.57
2022-07-28T09:11:13.952Z,19.67
2022-07-28T09:13:43.644Z,19.69
2022-07-28T09:16:18.442Z,19.88
2022-07-28T09:18:48.179Z,19.22
2022-07-28T09:21:21.311Z,19.19
2022-07-28T09:23:51.683Z,18.87
2022-07-28T09:26:21.562Z,18.56
2022-07-28T09:28:53.221Z,18.68
2022-07-28T09:31:23.789Z,18.13
2022-07-28T09:33:58.095Z,17.97
2022-07-28T09:36:31.201Z,18.23
2022-07-28T09:39:00.871Z,17.95
2022-07-28T09:41:30.521Z,18.32
2022-07-28T09:44:00.151Z,18.14
2022-07-28T09:46:31.102Z,18.67
2022-07-28T09:49:02.865Z,18.53
2022-07-28T09:51:35.892Z,18.75
2022-07-28T09:54:10.529Z,18.82
2022-07-28T09:56:40.502Z,18.65
2022-07-28T09:59:11.594Z,18.54
2022-07-28T10:01:56.646Z,18.66
2022-07-28T10:04:34.807Z,18.58
2022-07-28T10:07:09.985Z,19.31
2022-07-28T10:09:40.089Z,19.72
2022-07-28T10:12:24.757Z,20.68
2022-07-28T10:14:56.220Z,21.18
2022-07-28T10:17:31.095Z,22.67
2022-07-28T10:20:01.792Z,24.34
2022-07-28T10:22:43.085Z,24.72
2022-07-28T10:25:14.547Z,25.56
2022-07-28T10:27:45.348Z,26.79
2022-07-28T10:30:16.627Z,27.34
2022-07-28T10:32:47.714Z,27.96
2022-07-28T10:35:19.835Z,29.17
2022-07-28T10:37:55.048Z,29.89
2022-07-28T10:40:29.827Z,30.48
2022-07-28T10:42:59.585Z,30.31
2022-07-28T10:45:55.165Z,30.88
2022-07-28T10:48:21.366Z,31.57
2022-07-28T10:50:53.970Z,32.53
2022-07-28T10:53:33.397Z,33.10
2022-07-28T10:56:06.227Z,33.23
2022-07-28T10:58:44.510Z,33.57
2022-07-28T11:01:54.146Z,32.74
2022-07-28T11:04:55.462Z,33.30
2022-07-28T11:07:25.141Z,33.27
2022-07-28T11:10:20.711Z,33.67
2022-07-28T11:12:51.764Z,33.79
2022-07-28T11:15:31.998Z,33.57
2022-07-28T11:18:04.746Z,33.17
2022-07-28T11:21:10.780Z,33.48
2022-07-28T11:23:46.807Z,33.91
2022-07-28T11:26:40.010Z,33.69
2022-07-28T11:29:22.917Z,34.06
2022-07-28T11:32:02.801Z,33.96
2022-07-28T11:35:07.471Z,33.64
2022-07-28T11:38:12.814Z,33.29
2022-07-28T11:40:44.515Z,33.58
2022-07-28T11:43:39.772Z,33.82
2022-07-28T11:46:37.390Z,33.54
2022-07-28T11:49:25.027Z,33.74
2022-07-28T11:52:10.794Z,33.88
2022-07-28T11:54:44.123Z,33.91
2022-07-28T11:57:13.915Z,33.61
2022-07-28T11:59:47.316Z,33.84
2022-07-28T12:02:24.344Z,33.88
2022-07-28T12:05:02.935Z,33.48
2022-07-28T12:07:36.940Z,33.69
2022-07-28T12:13:29.402Z,33.25
2022-07-28T12:15:59.322Z,33.47
2022-07-28T12:18:29.035Z,33.42
2022-07-28T12:21:04.895Z,33.18
2022-07-28T12:23:46.012Z,33.42
2022-07-28T12:26:41.093Z,33.47
2022-07-28T12:29:13.881Z,33.84
2022-07-28T12:31:55.238Z,34.18
2022-07-28T12:34:28.840Z,34.09
2022-07-28T12:36:59.858Z,33.80
2022-07-28T12:39:30.846Z,33.86
2022-07-28T12:42:08.237Z,33.81
2022-07-28T12:44:38.835Z,33.65
2022-07-28T12:47:10.897Z,33.95
2022-07-28T12:49:42.194Z,33.76
2022-07-28T12:52:19.121Z,34.34
2022-07-28T12:54:55.387Z,34.00
2022-07-28T12:57:51.598Z,33.88
2022-07-28T13:00:26.137Z,33.62
2022-07-28T13:02:56.943Z,33.44
2022-07-28T13:05:51.206Z,33.68
2022-07-28T13:08:20.884Z,33.28
2022-07-28T13:10:56.695Z,33.29
2022-07-28T13:13:30.257Z,33.43
2022-07-28T13:16:15.800Z,33.86
2022-07-28T13:18:47.066Z,33.84
2022-07-28T13:21:16.937Z,33.76
2022-07-28T13:23:46.755Z,33.98
2022-07-28T13:26:16.432Z,33.66
2022-07-28T13:28:48.654Z,34.23
2022-07-28T13:31:18.588Z,33.77
2022-07-28T13:33:48.273Z,33.77
2022-07-28T13:36:17.959Z,33.39
2022-07-28T13:38:47.559Z,33.38
2022-07-28T13:41:18.691Z,33.17
2022-07-28T13:43:51.787Z,33.50
2022-07-28T13:46:21.896Z,33.32
2022-07-28T13:48:58.103Z,33.88
2022-07-28T13:51:29.745Z,33.63
2022-07-28T13:54:04.447Z,33.63
2022-07-28T13:56:34.062Z,33.41
2022-07-28T13:59:08.726Z,33.25
2022-07-28T14:01:41.018Z,33.61
2022-07-28T14:04:16.799Z,34.06
2022-07-28T14:06:47.558Z,33.79
2022-07-28T14:09:18.668Z,33.59
2022-07-28T14:11:53.658Z,33.78
2022-07-28T14:14:26.763Z,33.68
2022-07-28T14:16:56.644Z,33.63
2022-07-28T14:19:38.946Z,33.81
2022-07-28T14:22:13.745Z,33.45
2022-07-28T14:24:43.889Z,33.02
2022-07-28T14:27:13.743Z,33.30
2022-07-28T14:29:47.030Z,33.77
2022-07-28T14:32:16.665Z,33.28
2022-07-28T14:34:46.299Z,33.65
2022-07-28T14:37:17.147Z,33.55
2022-07-28T14:39:46.906Z,33.40
2022-07-28T14:42:16.533Z,33.53
2022-07-28T14:44:48.782Z,33.30
2022-07-28T14:47:19.161Z,32.64
2022-07-28T14:49:57.290Z,33.14
2022-07-28T14:52:28.284Z,33.01
2022-07-28T14:54:58.228Z,32.89
2022-07-28T14:57:45.915Z,33.12
2022-07-28T15:00:20.582Z,33.17
2022-07-28T15:02:51.562Z,33.56
2022-07-28T15:05:21.930Z,33.15
2022-07-28T15:07:52.354Z,33.50
2022-07-28T15:10:22.999Z,33.30
2022-07-28T15:12:52.731Z,33.43
2022-07-28T15:15:26.646Z,34.07
2022-07-28T15:17:57.416Z,34.14
2022-07-28T15:20:27.184Z,34.31
2022-07-28T15:22:56.785Z,34.98
2022-07-28T15:25:26.962Z,34.65
2022-07-28T15:27:56.537Z,34.87
2022-07-28T15:30:29.041Z,34.47
2022-07-28T15:33:01.286Z,34.77
2022-07-28T15:35:58.633Z,35.45
2022-07-28T15:38:22.467Z,35.14
2022-07-28T15:40:52.199Z,35.42
2022-07-28T15:43:23.575Z,35.39
2022-07-28T15:45:57.665Z,35.26
2022-07-28T15:48:27.076Z,35.19
2022-07-28T15:50:57.173Z,35.31
2022-07-28T15:53:26.811Z,34.99
2022-07-28T15:55:56.852Z,34.97
2022-07-28T15:58:27.946Z,35.22
2022-07-28T16:01:00.955Z,35.09
2022-07-28T16:03:31.480Z,35.13
2022-07-28T16:06:01.213Z,35.57
2022-07-28T16:08:30.926Z,35.08
2022-07-28T16:11:00.565Z,35.42
2022-07-28T16:13:36.896Z,35.26
2022-07-28T16:16:11.783Z,35.67
2022-07-28T16:18:43.799Z,35.98
2022-07-28T16:21:13.786Z,35.77
2022-07-28T16:23:43.473Z,36.07
2022-07-28T16:26:13.100Z,35.65
2022-07-28T16:28:42.736Z,35.84
2022-07-28T16:31:18.033Z,36.25
2022-07-28T16:33:47.686Z,36.01
2022-07-28T16:36:17.818Z,35.95
2022-07-28T16:38:47.484Z,35.96
2022-07-28T16:41:17.115Z,35.75
2022-07-28T16:43:46.742Z,35.98
2022-07-28T16:46:20.262Z,35.80
2022-07-28T16:48:49.955Z,35.90
2022-07-28T16:51:19.713Z,36.01
2022-07-28T16:53:50.178Z,36.35
2022-07-28T16:56:20.017Z,36.08
2022-07-28T16:58:50.187Z,36.35
2022-07-28T17:01:22.514Z,36.02
2022-07-28T17:03:52.649Z,36.43
2022-07-28T17:06:22.314Z,36.55
2022-07-28T17:08:51.942Z,36.35
2022-07-28T17:11:21.886Z,36.52
2022-07-28T17:13:51.681Z,36.51
2022-07-28T17:16:23.916Z,37.06
2022-07-28T17:18:54.013Z,36.61
2022-07-28T17:21:23.803Z,36.86
2022-07-28T17:23:53.392Z,37.10
2022-07-28T17:27:32.443Z,36.87
2022-07-28T17:29:13.085Z,37.32
2022-07-28T17:31:46.119Z,36.96
2022-07-28T17:34:16.106Z,37.02
2022-07-28T17:36:46.233Z,36.97
2022-07-28T17:39:15.901Z,37.11
2022-07-28T17:41:45.854Z,37.35
2022-07-28T17:44:15.799Z,37.14
2022-07-28T17:46:49.208Z,37.58
2022-07-28T17:49:19.264Z,37.71
2022-07-28T17:51:48.911Z,37.28
2022-07-28T17:54:22.901Z,37.35
2022-07-28T17:56:54.540Z,37.18
2022-07-28T17:59:24.337Z,37.86
2022-07-28T18:02:06.482Z,37.92
2022-07-28T18:04:36.366Z,37.33
2022-07-28T18:07:06.051Z,37.56
2022-07-28T18:09:35.680Z,38.07
2022-07-28T18:12:05.649Z,38.02
2022-07-28T18:14:35.271Z,37.75
2022-07-28T18:17:07.484Z,38.36
2022-07-28T18:19:38.949Z,37.55
2022-07-28T18:22:11.850Z,38.15
2022-07-28T18:24:41.469Z,38.17
2022-07-28T18:27:11.736Z,38.19
2022-07-28T18:29:41.369Z,38.44
2022-07-28T18:32:14.622Z,38.22
2022-07-28T18:34:45.400Z,38.62
2022-07-28T18:37:15.591Z,38.33
2022-07-28T18:39:45.195Z,38.88
2022-07-28T18:42:15.946Z,38.50
2022-07-28T18:44:45.696Z,38.71
2022-07-28T18:47:17.889Z,38.45
2022-07-28T18:49:47.540Z,38.51
2022-07-28T18:52:17.171Z,38.74
2022-07-28T18:54:46.773Z,39.07
2022-07-28T18:57:16.411Z,38.75
2022-07-28T18:59:51.645Z,39.30
2022-07-28T19:02:26.479Z,39.32
2022-07-28T19:04:56.414Z,39.41
2022-07-28T19:07:26.238Z,39.36
2022-07-28T19:09:55.897Z,39.38
2022-07-28T19:12:27.083Z,39.88
2022-07-28T19:14:56.704Z,39.62
2022-07-28T19:17:29.191Z,40.13
2022-07-28T19:19:59.791Z,40.22
2022-07-28T19:22:29.450Z,39.94
2022-07-28T19:24:59.065Z,40.48
2022-07-28T19:27:30.868Z,40.16
2022-07-28T19:30:00.588Z,40.66
2022-07-28T19:32:32.848Z,40.62
2022-07-28T19:35:03.909Z,41.18
2022-07-28T19:37:33.539Z,40.75
2022-07-28T19:40:03.135Z,40.97
2022-07-28T19:42:33.917Z,41.29
2022-07-28T19:45:03.564Z,41.14
2022-07-28T19:47:36.578Z,41.72
2022-07-28T19:50:07.841Z,41.28
2022-07-28T19:52:38.003Z,41.76
2022-07-28T19:55:10.078Z,41.84
2022-07-28T19:57:42.083Z,41.66
2022-07-28T20:00:13.659Z,41.85
2022-07-28T20:02:46.232Z,41.79
2022-07-28T20:05:16.288Z,41.71
2022-07-28T20:07:45.976Z,41.55
2022-07-28T20:10:15.951Z,41.44
2022-07-28T20:12:45.790Z,41.90
2022-07-28T20:15:15.519Z,41.91
2022-07-28T20:17:48.088Z,41.95
2022-07-28T20:20:17.909Z,41.43
2022-07-28T20:22:47.980Z,41.46
2022-07-28T20:25:17.831Z,41.96
2022-07-28T20:27:47.464Z,41.55
2022-07-28T20:30:17.309Z,41.76
2022-07-28T20:32:49.549Z,41.79
2022-07-28T20:35:19.191Z,42.11
2022-07-28T20:37:48.805Z,42.25
2022-07-28T20:40:19.427Z,42.33
2022-07-28T20:42:53.380Z,42.01
2022-07-28T20:45:23.775Z,42.12
2022-07-28T20:47:55.993Z,42.00
2022-07-28T20:50:25.650Z,42.18
2022-07-28T20:52:55.263Z,42.25
2022-07-28T20:55:26.403Z,42.21
2022-07-28T20:57:57.546Z,42.69
2022-07-28T21:00:27.729Z,42.31
2022-07-28T21:03:00.143Z,42.54
2022-07-28T21:05:35.437Z,42.80
2022-07-28T21:08:09.272Z,42.66
2022-07-28T21:10:45.658Z,43.10
2022-07-28T21:13:15.309Z,42.69
2022-07-28T21:15:45.426Z,43.22
2022-07-28T21:18:18.164Z,43.07
2022-07-28T21:20:48.024Z,42.79
2022-07-28T21:23:18.968Z,42.82
2022-07-28T21:25:51.091Z,43.18
2022-07-28T21:28:33.414Z,43.05
2022-07-28T21:31:03.156Z,42.85
2022-07-28T21:33:35.697Z,42.65
2022-07-28T21:36:06.805Z,42.43
2022-07-28T21:38:36.474Z,42.93
2022-07-28T21:41:06.317Z,42.96
2022-07-28T21:43:36.538Z,42.99
2022-07-28T21:46:06.545Z,42.57
2022-07-28T21:48:38.898Z,42.81
2022-07-28T21:51:20.594Z,42.41
2022-07-28T21:53:51.513Z,42.58
2022-07-28T21:56:21.677Z,42.51
2022-07-28T21:58:51.340Z,43.09
2022-07-28T22:01:21.070Z,43.01
2022-07-28T22:03:53.470Z,43.11
2022-07-28T22:06:23.666Z,42.74
2022-07-28T22:08:54.060Z,43.14
2022-07-28T22:11:24.037Z,43.32
2022-07-28T22:13:53.793Z,43.27
2022-07-28T22:16:23.508Z,43.46
2022-07-28T22:18:55.786Z,43.64
2022-07-28T22:21:25.399Z,43.77
2022-07-28T22:23:55.028Z,43.44
2022-07-28T22:26:24.701Z,43.88
2022-07-28T22:28:54.325Z,44.03
2022-07-28T22:31:24.008Z,44.03
2022-07-28T22:33:56.380Z,43.87
2022-07-28T22:36:25.974Z,43.86
2022-07-28T22:38:55.664Z,44.08
2022-07-28T22:41:25.457Z,43.93
2022-07-28T22:43:56.133Z,44.03
2022-07-28T22:46:25.811Z,44.02
2022-07-28T22:48:58.275Z,44.42
2022-07-28T22:51:28.006Z,44.08
2022-07-28T22:53:58.977Z,44.05
2022-07-28T22:56:34.959Z,44.18
2022-07-28T22:59:07.493Z,44.26
2022-07-28T23:01:37.210Z,43.99
2022-07-28T23:04:09.542Z,44.38
2022-07-28T23:06:39.245Z,44.22
2022-07-28T23:09:08.975Z,44.63
2022-07-28T23:11:38.604Z,44.67
2022-07-28T23:14:08.337Z,44.52
2022-07-28T23:16:38.483Z,44.72
2022-07-28T23:19:10.719Z,44.66
2022-07-28T23:21:41.441Z,44.53
2022-07-28T23:24:11.523Z,45.02
2022-07-28T23:26:41.209Z,44.74
2022-07-28T23:29:10.936Z,44.80
2022-07-28T23:31:40.735Z,44.72
2022-07-28T23:34:13.364Z,44.59
2022-07-28T23:36:43.253Z,44.88
2022-07-28T23:39:14.260Z,44.47
2022-07-28T23:41:43.905Z,44.88
2022-07-28T23:44:13.912Z,45.12
2022-07-28T23:46:43.874Z,45.01
2022-07-28T23:49:16.273Z,44.86
2022-07-28T23:51:47.766Z,45.32
2022-07-28T23:54:18.710Z,45.01
2022-07-28T23:56:48.821Z,45.19
2022-07-28T23:59:18.509Z,45.43
